Time;durP1;ratioP1;P1;durP2;ratioP2;P2;SDS_P1;SDS_P2;PMS_P1;PMS_P2;Temp;Humidity;BMP_temperature;BMP_pressure;BME280_temperature;BME280_humidity;BME280_pressure;Samples;Min_cycle;Max_cycle;Signal;HPM_P1;HPM_P2
2021/12/17 00:00:22;;;;;;;;;19.80;19.40;;;;;;;;5225853;28;8779;-65
2021/12/17 00:06:04;;;;;;;;;24.40;24.20;;;;;;;;5226246;28;8787;-66
2021/12/17 00:08:34;;;;;;;;;20.80;20.80;;;;;;;;5225804;28;8786;-64
2021/12/17 00:11:06;;;;;;;;;17.80;15.20;;;;;;;;5208582;28;8771;-66
2021/12/17 00:13:38;;;;;;;;;20.80;20.00;;;;;;;;5225450;28;8799;-66
2021/12/17 00:16:19;;;;;;;;;28.40;26.20;;;;;;;;5207669;28;8811;-64
2021/12/17 00:50:12;;;;;;;;;10.80;10.80;;;;;;;;5211685;28;9136;-64
2021/12/17 00:52:43;;;;;;;;;8.20;8.20;;;;;;;;5229488;28;9549;-64
2021/12/17 00:55:15;;;;;;;;;11.80;11.80;;;;;;;;5212124;28;8845;-65
2021/12/17 00:57:46;;;;;;;;;6.80;6.80;;;;;;;;5228910;28;8814;-66
2021/12/17 01:00:19;;;;;;;;;8.40;8.40;;;;;;;;5229417;28;8834;-66
2021/12/17 01:02:52;;;;;;;;;12.60;12.60;;;;;;;;5194816;28;8913;-66
2021/12/17 01:05:25;;;;;;;;;11.60;11.60;;;;;;;;5228882;28;8817;-65
2021/12/17 01:07:58;;;;;;;;;16.20;13.40;;;;;;;;5211070;28;9632;-65
2021/12/17 01:10:50;;;;;;;;;11.40;11.00;;;;;;;;5229099;28;8767;-65
2021/12/17 01:13:41;;;;;;;;;11.00;11.00;;;;;;;;5229220;28;8848;-65
2021/12/17 01:16:32;;;;;;;;;13.60;12.80;;;;;;;;5213458;28;8823;-65
2021/12/17 01:19:22;;;;;;;;;12.00;12.00;;;;;;;;5211180;28;8779;-65
2021/12/17 01:40:59;;;;;;;;;11.00;11.00;;;;;;;;5185379;28;8804;-65
2021/12/17 01:43:31;;;;;;;;;12.20;12.20;;;;;;;;5201757;28;8814;-65
2021/12/17 01:46:05;;;;;;;;;11.00;10.00;;;;;;;;5210500;28;8823;-66
2021/12/17 01:48:55;;;;;;;;;14.20;14.20;;;;;;;;5210331;28;8814;-65
2021/12/17 02:00:06;;;;;;;;;11.80;11.40;;;;;;;;5228067;28;9474;-65
2021/12/17 02:02:47;;;;;;;;;11.40;11.40;;;;;;;;5211655;28;8934;-66
2021/12/17 02:05:25;;;;;;;;;14.60;14.20;;;;;;;;5210324;28;8909;-66
2021/12/17 02:07:58;;;;;;;;;10.40;10.40;;;;;;;;5210213;28;8821;-66
2021/12/17 02:30:50;;;;;;;;;23.40;23.40;;;;;;;;5209565;28;8763;-66
2021/12/17 02:33:22;;;;;;;;;21.00;21.00;;;;;;;;5193338;28;8767;-65
2021/12/17 02:35:53;;;;;;;;;14.40;14.40;;;;;;;;5209587;28;8835;-65
2021/12/17 02:38:24;;;;;;;;;19.00;17.80;;;;;;;;5227873;28;8783;-66
2021/12/17 02:47:06;;;;;;;;;13.40;13.40;;;;;;;;5193327;28;8884;-66
2021/12/17 02:49:41;;;;;;;;;14.20;14.20;;;;;;;;5209218;28;8791;-65
2021/12/17 02:52:13;;;;;;;;;12.60;12.60;;;;;;;;5226740;28;8901;-65
2021/12/17 02:54:45;;;;;;;;;13.80;13.80;;;;;;;;5227479;28;8869;-65
2021/12/17 02:57:16;;;;;;;;;14.60;14.00;;;;;;;;5209080;28;8787;-64
2021/12/17 02:59:47;;;;;;;;;15.50;15.25;;;;;;;;5208494;28;8873;-65
2021/12/17 03:02:22;;;;;;;;;14.20;13.20;;;;;;;;5226617;28;8806;-66
2021/12/17 03:05:12;;;;;;;;;15.80;15.80;;;;;;;;5226607;28;8857;-64
2021/12/17 03:07:47;;;;;;;;;15.00;15.00;;;;;;;;5209028;28;8779;-65
2021/12/17 03:10:18;;;;;;;;;12.40;12.40;;;;;;;;5192750;28;8810;-64
2021/12/17 03:12:58;;;;;;;;;9.80;9.80;;;;;;;;5209190;28;8791;-64
2021/12/17 03:23:43;;;;;;;;;13.20;12.40;;;;;;;;5208573;28;8813;-65
2021/12/17 03:26:25;;;;;;;;;11.80;11.80;;;;;;;;5176861;28;9466;-66
2021/12/17 03:28:59;;;;;;;;;10.20;8.20;;;;;;;;5226667;28;8908;-65
2021/12/17 03:31:49;;;;;;;;;15.60;15.60;;;;;;;;5211364;28;8883;-66
2021/12/17 03:34:21;;;;;;;;;8.40;8.40;;;;;;;;5208605;28;8803;-65
2021/12/17 03:36:57;;;;;;;;;11.20;11.20;;;;;;;;5192152;28;8835;-65
2021/12/17 03:39:33;;;;;;;;;14.20;14.20;;;;;;;;5192488;28;8794;-66
2021/12/17 03:42:07;;;;;;;;;17.40;16.00;;;;;;;;5226278;28;8795;-65
2021/12/17 03:44:41;;;;;;;;;24.40;21.60;;;;;;;;5192398;28;8775;-66
2021/12/17 03:47:18;;;;;;;;;13.20;13.20;;;;;;;;5209332;28;8763;-66
2021/12/17 03:50:04;;;;;;;;;17.20;17.20;;;;;;;;5191625;28;8791;-66
2021/12/17 03:52:36;;;;;;;;;14.80;14.80;;;;;;;;5225778;28;8787;-66
2021/12/17 03:55:07;;;;;;;;;14.80;14.80;;;;;;;;5207837;28;8972;-65
2021/12/17 03:57:44;;;;;;;;;13.00;13.00;;;;;;;;5208681;28;8849;-66
2021/12/17 04:00:15;;;;;;;;;12.00;12.00;;;;;;;;5225808;28;8795;-66
2021/12/17 04:02:50;;;;;;;;;16.20;16.20;;;;;;;;5225531;28;8810;-66
2021/12/17 04:05:39;;;;;;;;;21.60;20.20;;;;;;;;5208086;28;8791;-66
2021/12/17 04:08:29;;;;;;;;;151.75;120.00;;;;;;;;5225699;28;8873;-67
2021/12/17 04:11:39;;;;;;;;;23.40;23.40;;;;;;;;5182559;28;8797;-65
2021/12/17 04:14:19;;;;;;;;;28.60;26.60;;;;;;;;5166576;28;8777;-65
2021/12/17 04:17:05;;;;;;;;;23.60;19.80;;;;;;;;5179813;28;9588;-66
2021/12/17 04:19:37;;;;;;;;;35.60;26.80;;;;;;;;5191678;28;9573;-68
2021/12/17 04:22:08;;;;;;;;;24.80;23.80;;;;;;;;5191997;28;8819;-67
2021/12/17 04:24:40;;;;;;;;;20.00;19.80;;;;;;;;5191631;28;8802;-67
2021/12/17 04:27:11;;;;;;;;;23.60;22.40;;;;;;;;5207721;28;8834;-67
2021/12/17 04:29:43;;;;;;;;;21.00;18.80;;;;;;;;5208277;28;8794;-67
2021/12/17 04:32:16;;;;;;;;;23.40;23.40;;;;;;;;5191034;28;8810;-67
2021/12/17 04:34:48;;;;;;;;;17.00;16.80;;;;;;;;5207256;28;8819;-66
2021/12/17 04:37:19;;;;;;;;;25.40;24.20;;;;;;;;5207643;28;8783;-68
2021/12/17 04:40:00;;;;;;;;;18.00;15.40;;;;;;;;5208045;28;9482;-66
2021/12/17 04:45:11;;;;;;;;;45.00;41.80;;;;;;;;5208214;28;9518;-65
2021/12/17 04:59:50;;;;;;;;;19.60;19.60;;;;;;;;5225453;28;9565;-66
2021/12/17 05:02:21;;;;;;;;;15.25;15.00;;;;;;;;5225450;28;8933;-66
2021/12/17 05:05:06;;;;;;;;;15.20;15.20;;;;;;;;5207505;28;8794;-66
2021/12/17 05:07:45;;;;;;;;;18.20;18.00;;;;;;;;5207875;28;8957;-66
2021/12/17 05:18:41;;;;;;;;;16.60;16.60;;;;;;;;5207349;28;8818;-67
2021/12/17 05:21:14;;;;;;;;;14.80;14.80;;;;;;;;5207495;28;9568;-67
2021/12/17 05:23:51;;;;;;;;;16.60;16.00;;;;;;;;5194409;28;9509;-67
2021/12/17 05:26:24;;;;;;;;;23.00;20.20;;;;;;;;5195313;28;9363;-66
2021/12/17 05:28:59;;;;;;;;;22.80;22.80;;;;;;;;5195616;28;8786;-66
2021/12/17 05:31:49;;;;;;;;;18.00;18.00;;;;;;;;5214248;28;8771;-66
2021/12/17 05:34:20;;;;;;;;;21.50;20.50;;;;;;;;5229444;28;8791;-66
2021/12/17 05:36:55;;;;;;;;;36.00;34.80;;;;;;;;5210763;28;9709;-67
2021/12/17 05:39:44;;;;;;;;;44.00;39.80;;;;;;;;5228393;28;8767;-66
2021/12/17 05:42:19;;;;;;;;;31.20;31.20;;;;;;;;5210553;28;8991;-67
2021/12/17 05:53:49;;;;;;;;;19.40;19.00;;;;;;;;5207053;28;8864;-67
2021/12/17 05:56:20;;;;;;;;;20.00;20.00;;;;;;;;5173309;28;8841;-67
2021/12/17 05:58:57;;;;;;;;;25.40;23.20;;;;;;;;5174614;28;8800;-67
2021/12/17 06:01:28;;;;;;;;;28.20;26.20;;;;;;;;5190390;28;8806;-66
2021/12/17 06:04:00;;;;;;;;;26.60;26.40;;;;;;;;5173153;28;8794;-68
2021/12/17 06:10:56;;;;;;;;;27.20;23.60;;;;;;;;5206670;28;8730;-68
2021/12/17 06:13:29;;;;;;;;;23.00;22.60;;;;;;;;5189191;28;8821;-68
2021/12/17 06:16:00;;;;;;;;;33.80;32.60;;;;;;;;5173645;28;8940;-71
2021/12/17 06:18:33;;;;;;;;;29.00;27.80;;;;;;;;5173209;28;8790;-68
2021/12/17 06:21:04;;;;;;;;;30.75;28.00;;;;;;;;5189449;28;8898;-68
2021/12/17 06:23:35;;;;;;;;;25.00;22.80;;;;;;;;5173472;28;8823;-68
2021/12/17 06:26:07;;;;;;;;;33.20;32.40;;;;;;;;5172866;28;8805;-67
2021/12/17 06:28:40;;;;;;;;;32.40;31.80;;;;;;;;5173256;28;8809;-69
2021/12/17 06:31:29;;;;;;;;;38.60;31.00;;;;;;;;5189057;28;8794;-66
2021/12/17 06:34:01;;;;;;;;;22.20;21.40;;;;;;;;5188917;28;8867;-66
2021/12/17 06:36:50;;;;;;;;;20.80;20.80;;;;;;;;5191769;28;9590;-66
2021/12/17 06:39:21;;;;;;;;;24.20;24.20;;;;;;;;5189031;28;8786;-66
2021/12/17 06:41:52;;;;;;;;;25.00;25.00;;;;;;;;5206722;28;8794;-66
2021/12/17 06:44:26;;;;;;;;;59.80;49.80;;;;;;;;5172210;28;8946;-66
2021/12/17 06:47:06;;;;;;;;;51.80;44.40;;;;;;;;5172366;28;8821;-66
2021/12/17 07:10:44;;;;;;;;;65.40;54.20;;;;;;;;5188443;28;8811;-66
2021/12/17 07:22:05;;;;;;;;;54.00;48.20;;;;;;;;5188383;28;8814;-66
2021/12/17 07:28:02;;;;;;;;;46.40;43.20;;;;;;;;5171725;28;8814;-68
2021/12/17 07:33:43;;;;;;;;;32.60;31.00;;;;;;;;5205260;28;9564;-67
2021/12/17 07:38:37;;;;;;;;;43.80;36.80;;;;;;;;5175361;28;8837;-67
2021/12/17 07:39:49;;;;;;;;;84.20;65.00;;;;;;;;5187562;28;8801;-67
2021/12/17 07:42:28;;;;;;;;;69.00;56.20;;;;;;;;5190548;28;8826;-67
2021/12/17 07:45:20;;;;;;;;;60.60;50.00;;;;;;;;5225067;28;8791;-68
2021/12/17 07:48:01;;;;;;;;;25.80;25.80;;;;;;;;5210068;28;8779;-68
2021/12/17 07:50:34;;;;;;;;;53.20;46.00;;;;;;;;5191836;28;8782;-67
2021/12/17 07:53:24;;;;;;;;;40.80;39.40;;;;;;;;5194520;28;8791;-67
2021/12/17 07:56:21;;;;;;;;;47.00;42.60;;;;;;;;5208288;28;8835;-67
2021/12/17 07:58:54;;;;;;;;;47.00;43.80;;;;;;;;5208128;28;8775;-66
2021/12/17 08:01:25;;;;;;;;;53.75;48.50;;;;;;;;5226424;28;8779;-66
2021/12/17 08:03:57;;;;;;;;;41.00;39.40;;;;;;;;5191233;28;10611;-66
2021/12/17 08:06:36;;;;;;;;;59.60;49.60;;;;;;;;5191730;28;8779;-66
2021/12/17 08:09:20;;;;;;;;;58.60;48.80;;;;;;;;5194173;28;8909;-66
2021/12/17 08:11:57;;;;;;;;;61.40;51.40;;;;;;;;5207583;28;8793;-67
2021/12/17 08:14:34;;;;;;;;;71.60;57.40;;;;;;;;5192966;28;8763;-67
2021/12/17 08:23:31;;;;;;;;;50.00;45.60;;;;;;;;5191583;28;8837;-66
2021/12/17 08:26:11;;;;;;;;;44.40;40.20;;;;;;;;5190963;28;9015;-66
2021/12/17 08:28:56;;;;;;;;;38.00;36.00;;;;;;;;5207649;28;8791;-66
2021/12/17 08:31:30;;;;;;;;;38.20;37.20;;;;;;;;5191806;28;8791;-66
2021/12/17 08:34:03;;;;;;;;;28.80;28.20;;;;;;;;5191227;28;8787;-66
2021/12/17 08:36:34;;;;;;;;;26.80;24.40;;;;;;;;5186876;28;8836;-66
2021/12/17 08:39:24;;;;;;;;;34.00;30.20;;;;;;;;5204547;28;8781;-66
2021/12/17 08:41:56;;;;;;;;;26.00;24.00;;;;;;;;5187230;28;8784;-66
2021/12/17 08:44:30;;;;;;;;;24.20;24.20;;;;;;;;5203334;28;8785;-67
2021/12/17 08:47:36;;;;;;;;;32.20;28.80;;;;;;;;5192491;28;8808;-66
2021/12/17 08:50:08;;;;;;;;;35.20;30.20;;;;;;;;5187139;28;8784;-66
2021/12/17 08:52:41;;;;;;;;;54.40;46.80;;;;;;;;5187000;28;8812;-66
2021/12/17 08:55:12;;;;;;;;;39.60;36.60;;;;;;;;5203089;28;9495;-66
2021/12/17 08:57:44;;;;;;;;;51.20;43.20;;;;;;;;5203968;28;8816;-66
2021/12/17 09:00:16;;;;;;;;;51.40;45.00;;;;;;;;5190634;28;8804;-67
2021/12/17 09:07:33;;;;;;;;;32.60;31.60;;;;;;;;5209192;28;8721;-67
2021/12/17 09:10:24;;;;;;;;;45.60;41.40;;;;;;;;5191489;28;8819;-66
2021/12/17 09:12:56;;;;;;;;;46.40;43.40;;;;;;;;5192161;28;8792;-66
2021/12/17 09:15:27;;;;;;;;;52.00;46.00;;;;;;;;5208114;28;8830;-66
2021/12/17 09:18:07;;;;;;;;;35.20;35.00;;;;;;;;5209761;28;12301;-67
2021/12/17 09:20:45;;;;;;;;;40.40;38.00;;;;;;;;5191787;28;8812;-66
2021/12/17 09:23:17;;;;;;;;;40.60;39.60;;;;;;;;5191225;28;8769;-67
2021/12/17 09:25:49;;;;;;;;;67.00;54.20;;;;;;;;5190830;28;8934;-67
2021/12/17 09:28:23;;;;;;;;;47.20;42.60;;;;;;;;5190727;28;8776;-67
2021/12/17 09:31:02;;;;;;;;;36.40;33.00;;;;;;;;5191314;28;8779;-66
2021/12/17 09:33:33;;;;;;;;;30.00;30.00;;;;;;;;5206921;28;8796;-67
2021/12/17 09:36:05;;;;;;;;;31.40;29.80;;;;;;;;5207172;28;8839;-67
2021/12/17 09:38:36;;;;;;;;;32.00;29.80;;;;;;;;5190862;28;9476;-66
2021/12/17 09:41:26;;;;;;;;;42.20;40.20;;;;;;;;5208427;28;8768;-66
2021/12/17 09:43:57;;;;;;;;;79.60;62.80;;;;;;;;5186773;28;8791;-67
2021/12/17 09:46:28;;;;;;;;;36.20;32.80;;;;;;;;5170466;28;8827;-67
2021/12/17 09:48:59;;;;;;;;;36.00;34.60;;;;;;;;5187866;28;8909;-67
2021/12/17 09:51:30;;;;;;;;;31.60;31.00;;;;;;;;5170096;28;8857;-67
2021/12/17 09:54:01;;;;;;;;;41.50;34.75;;;;;;;;5187075;28;8790;-67
2021/12/17 09:56:32;;;;;;;;;28.60;28.40;;;;;;;;5169590;28;11316;-67
2021/12/17 09:59:04;;;;;;;;;31.60;30.60;;;;;;;;5169953;28;8803;-66
2021/12/17 10:01:38;;;;;;;;;43.00;41.80;;;;;;;;5169552;28;8803;-67
2021/12/17 10:04:14;;;;;;;;;39.00;37.60;;;;;;;;5169828;28;8868;-67
2021/12/17 10:06:46;;;;;;;;;43.00;39.80;;;;;;;;5169783;28;8791;-67
2021/12/17 10:09:18;;;;;;;;;34.40;33.20;;;;;;;;5169094;28;8795;-67
2021/12/17 10:12:09;;;;;;;;;39.80;38.20;;;;;;;;5169083;28;8809;-67
2021/12/17 10:14:41;;;;;;;;;34.40;32.80;;;;;;;;5186158;28;8865;-67
2021/12/17 10:17:13;;;;;;;;;33.40;31.00;;;;;;;;5168980;28;9521;-67
2021/12/17 10:20:07;;;;;;;;;43.40;42.00;;;;;;;;5186004;28;9498;-67
2021/12/17 10:22:38;;;;;;;;;49.00;41.20;;;;;;;;5169265;28;8782;-67
2021/12/17 10:25:10;;;;;;;;;48.80;42.60;;;;;;;;5186506;28;8815;-67
2021/12/17 10:27:42;;;;;;;;;31.80;31.80;;;;;;;;5169365;28;8795;-67
2021/12/17 10:30:18;;;;;;;;;42.60;41.00;;;;;;;;5168925;28;8794;-67
2021/12/17 10:32:55;;;;;;;;;39.60;38.40;;;;;;;;5185252;28;8771;-68
2021/12/17 10:35:27;;;;;;;;;43.00;40.40;;;;;;;;5185384;28;8858;-67
2021/12/17 10:38:02;;;;;;;;;45.00;40.20;;;;;;;;5169365;28;8929;-67
2021/12/17 10:40:36;;;;;;;;;31.60;29.60;;;;;;;;5168718;28;8913;-67
2021/12/17 10:43:32;;;;;;;;;38.40;34.00;;;;;;;;5184657;28;8799;-67
2021/12/17 10:46:10;;;;;;;;;53.00;44.20;;;;;;;;5168072;28;8819;-67
2021/12/17 10:52:03;;;;;;;;;57.80;47.80;;;;;;;;5186887;28;8791;-68
2021/12/17 10:54:17;;;;;;;;;59.40;49.40;;;;;;;;5185288;28;9577;-68
2021/12/17 10:56:50;;;;;;;;;64.60;53.40;;;;;;;;5168057;28;8822;-67
2021/12/17 10:59:22;;;;;;;;;121.25;106.00;;;;;;;;5201701;28;8818;-67
2021/12/17 11:01:58;;;;;;;;;68.20;57.20;;;;;;;;5168350;28;8794;-66
2021/12/17 11:04:30;;;;;;;;;49.20;43.60;;;;;;;;5184782;28;8849;-67
2021/12/17 11:07:03;;;;;;;;;40.80;36.40;;;;;;;;5168516;28;9505;-67
2021/12/17 11:09:43;;;;;;;;;50.00;43.80;;;;;;;;5168469;28;8807;-68
2021/12/17 11:12:17;;;;;;;;;55.80;48.20;;;;;;;;5168476;28;8807;-67
2021/12/17 11:14:48;;;;;;;;;59.00;48.40;;;;;;;;5168620;28;8783;-66
2021/12/17 11:17:23;;;;;;;;;48.20;44.20;;;;;;;;5167966;28;8868;-67
2021/12/17 11:19:54;;;;;;;;;48.20;44.00;;;;;;;;5167696;28;8799;-67
2021/12/17 11:22:29;;;;;;;;;70.80;53.20;;;;;;;;5167296;28;8787;-66
2021/12/17 11:25:01;;;;;;;;;73.80;60.00;;;;;;;;5185421;28;8809;-67
2021/12/17 11:27:34;;;;;;;;;67.40;53.80;;;;;;;;5168229;28;8802;-66
2021/12/17 11:34:34;;;;;;;;;37.20;34.40;;;;;;;;5184656;28;9580;-67
2021/12/17 11:37:07;;;;;;;;;53.80;46.20;;;;;;;;5167467;28;8900;-66
2021/12/17 11:39:59;;;;;;;;;56.60;48.80;;;;;;;;5167373;28;8806;-67
2021/12/17 11:42:36;;;;;;;;;120.00;99.00;;;;;;;;5183326;28;8811;-66
2021/12/17 11:45:23;;;;;;;;;98.80;74.00;;;;;;;;5167050;28;8882;-67
2021/12/17 11:48:09;;;;;;;;;74.00;61.80;;;;;;;;5167247;28;8775;-67
2021/12/17 11:50:41;;;;;;;;;78.80;63.40;;;;;;;;5167416;28;8807;-66
2021/12/17 11:53:23;;;;;;;;;65.20;53.80;;;;;;;;5167365;28;8799;-66
2021/12/17 11:56:01;;;;;;;;;74.60;59.00;;;;;;;;5184552;28;8818;-65
2021/12/17 11:58:50;;;;;;;;;70.20;57.20;;;;;;;;5167906;28;8771;-66
2021/12/17 12:01:39;;;;;;;;;65.60;56.00;;;;;;;;5166738;28;8807;-66
2021/12/17 12:04:24;;;;;;;;;84.60;65.80;;;;;;;;5185573;28;8848;-66
2021/12/17 12:07:18;;;;;;;;;71.00;53.80;;;;;;;;5167819;28;9475;-66
2021/12/17 12:09:58;;;;;;;;;48.40;38.60;;;;;;;;5175418;28;8838;-66
2021/12/17 12:12:50;;;;;;;;;69.40;58.20;;;;;;;;5184096;28;8791;-66
2021/12/17 12:18:11;;;;;;;;;58.00;50.40;;;;;;;;5184307;28;8886;-66
2021/12/17 12:20:45;;;;;;;;;63.60;52.40;;;;;;;;5167045;28;8841;-66
2021/12/17 12:23:36;;;;;;;;;69.60;57.80;;;;;;;;5183000;28;8949;-66
2021/12/17 12:26:13;;;;;;;;;61.60;49.00;;;;;;;;5166874;28;8913;-66
2021/12/17 12:28:50;;;;;;;;;69.00;56.40;;;;;;;;5183133;28;8791;-65
2021/12/17 12:31:27;;;;;;;;;63.60;53.00;;;;;;;;5167062;28;8779;-66
2021/12/17 12:33:58;;;;;;;;;52.60;46.60;;;;;;;;5185555;28;8779;-66
2021/12/17 12:36:41;;;;;;;;;50.60;44.00;;;;;;;;5170696;28;8859;-66
2021/12/17 12:39:14;;;;;;;;;41.60;41.20;;;;;;;;5171099;28;8807;-65
2021/12/17 12:41:46;;;;;;;;;55.80;48.00;;;;;;;;5187297;28;8795;-66
2021/12/17 12:44:41;;;;;;;;;101.40;75.60;;;;;;;;5186460;28;8795;-66
2021/12/17 12:47:31;;;;;;;;;57.40;48.00;;;;;;;;5170943;28;8808;-66
2021/12/17 12:50:07;;;;;;;;;57.20;48.80;;;;;;;;5170477;28;8811;-66
2021/12/17 12:52:51;;;;;;;;;62.00;51.00;;;;;;;;5171151;28;8799;-66
2021/12/17 12:55:21;;;;;;;;;64.00;50.00;;;;;;;;5188085;28;8829;-66
2021/12/17 12:57:55;;;;;;;;;63.00;53.00;;;;;;;;5187874;28;8783;-66
2021/12/17 13:00:49;;;;;;;;;69.60;57.40;;;;;;;;5170417;28;8942;-66
2021/12/17 13:03:28;;;;;;;;;79.60;65.20;;;;;;;;5181763;28;8973;-65
2021/12/17 13:06:01;;;;;;;;;61.00;52.00;;;;;;;;5186662;28;8896;-65
2021/12/17 13:08:54;;;;;;;;;50.40;41.60;;;;;;;;5188299;28;8775;-65
2021/12/17 13:11:24;;;;;;;;;67.20;56.20;;;;;;;;5188034;28;9482;-65
2021/12/17 13:14:24;;;;;;;;;62.20;54.00;;;;;;;;5187279;28;8787;-65
2021/12/17 13:17:05;;;;;;;;;36.40;36.20;;;;;;;;5170116;28;8831;-65
2021/12/17 13:22:42;;;;;;;;;74.20;59.20;;;;;;;;5187687;28;8783;-65
2021/12/17 13:25:22;;;;;;;;;63.60;51.00;;;;;;;;5187131;28;8790;-65
2021/12/17 13:27:54;;;;;;;;;83.80;64.80;;;;;;;;5170105;28;8817;-66
2021/12/17 13:30:26;;;;;;;;;76.20;58.60;;;;;;;;5186715;28;8898;-66
2021/12/17 13:32:57;;;;;;;;;60.60;49.20;;;;;;;;5184859;28;9462;-67
2021/12/17 13:35:33;;;;;;;;;29.00;26.50;;;;;;;;5197429;28;8856;-65
2021/12/17 13:38:29;;;;;;;;;40.00;37.00;;;;;;;;5187350;28;8797;-65
2021/12/17 13:45:27;;;;;;;;;52.20;46.20;;;;;;;;5187216;28;9434;-65
2021/12/17 13:47:58;;;;;;;;;54.60;44.80;;;;;;;;5187272;28;8814;-64
2021/12/17 13:50:29;;;;;;;;;44.20;41.80;;;;;;;;5186863;28;8807;-64
2021/12/17 13:53:00;;;;;;;;;54.60;47.40;;;;;;;;5185799;28;8805;-64
2021/12/17 13:55:40;;;;;;;;;55.25;48.75;;;;;;;;5186376;28;8799;-65
2021/12/17 13:58:30;;;;;;;;;58.80;48.40;;;;;;;;5186063;28;8811;-64
2021/12/17 14:01:01;;;;;;;;;55.60;48.60;;;;;;;;5184822;28;8919;-65
2021/12/17 14:03:34;;;;;;;;;57.00;47.75;;;;;;;;5185269;28;8901;-65
2021/12/17 14:06:35;;;;;;;;;46.40;43.20;;;;;;;;5189481;28;8828;-65
2021/12/17 14:09:06;;;;;;;;;51.40;44.40;;;;;;;;5200874;28;8798;-64
2021/12/17 14:16:02;;;;;;;;;50.00;43.80;;;;;;;;5186129;28;8815;-64
2021/12/17 14:18:34;;;;;;;;;39.80;38.60;;;;;;;;5184717;28;8783;-64
2021/12/17 14:21:27;;;;;;;;;31.60;29.40;;;;;;;;5186985;28;8926;-67
2021/12/17 14:23:59;;;;;;;;;34.80;33.00;;;;;;;;5153101;28;8791;-65
2021/12/17 14:26:31;;;;;;;;;21.60;21.00;;;;;;;;5185195;28;8818;-66
2021/12/17 14:29:11;;;;;;;;;40.80;38.60;;;;;;;;5168547;28;8763;-64
2021/12/17 14:31:42;;;;;;;;;28.00;28.00;;;;;;;;5184174;28;8794;-66
2021/12/17 14:43:30;;;;;;;;;50.40;44.60;;;;;;;;5165409;28;8758;-66
2021/12/17 14:46:24;;;;;;;;;61.80;49.20;;;;;;;;5163977;28;8820;-66
2021/12/17 14:57:16;;;;;;;;;51.00;46.40;;;;;;;;5165138;28;8781;-66
2021/12/17 15:10:14;;;;;;;;;47.00;45.00;;;;;;;;5165109;28;8741;-66
2021/12/17 15:12:46;;;;;;;;;50.20;47.00;;;;;;;;5147678;28;8848;-66
2021/12/17 15:19:40;;;;;;;;;59.40;45.80;;;;;;;;5164812;28;8845;-66
2021/12/17 15:22:11;;;;;;;;;39.75;36.50;;;;;;;;5165366;28;8798;-66
2021/12/17 15:24:42;;;;;;;;;42.50;41.75;;;;;;;;5163764;28;8863;-65
2021/12/17 15:27:13;;;;;;;;;44.20;42.40;;;;;;;;5146859;28;8929;-66
2021/12/17 15:29:44;;;;;;;;;43.75;40.75;;;;;;;;5165387;28;8944;-66
2021/12/17 15:32:15;;;;;;;;;43.40;39.40;;;;;;;;5167158;28;8818;-65
2021/12/17 15:39:09;;;;;;;;;53.80;44.60;;;;;;;;5224388;28;8794;-66
2021/12/17 15:46:03;;;;;;;;;74.80;58.60;;;;;;;;5204670;28;8753;-66
2021/12/17 15:48:34;;;;;;;;;78.50;60.50;;;;;;;;5205132;28;8820;-67
2021/12/17 15:51:06;;;;;;;;;68.40;55.40;;;;;;;;5205265;28;8809;-68
2021/12/17 15:53:37;;;;;;;;;59.80;49.40;;;;;;;;5171715;28;8879;-67
2021/12/17 15:56:08;;;;;;;;;66.75;55.00;;;;;;;;5187382;28;9497;-68
2021/12/17 15:58:39;;;;;;;;;52.60;44.00;;;;;;;;5205000;28;9726;-66
2021/12/17 16:01:10;;;;;;;;;16.50;13.25;;;;;;;;5187595;28;8875;-68
2021/12/17 16:03:43;;;;;;;;;57.25;50.00;;;;;;;;5187126;28;8782;-68
2021/12/17 16:06:14;;;;;;;;;56.00;46.40;;;;;;;;5186697;28;11508;-65
2021/12/17 16:08:49;;;;;;;;;63.00;49.20;;;;;;;;5171039;28;8924;-66
2021/12/17 16:21:10;;;;;;;;;65.60;51.40;;;;;;;;5205152;28;8980;-64
2021/12/17 16:23:49;;;;;;;;;80.60;62.00;;;;;;;;5170883;28;8851;-65
2021/12/17 16:26:22;;;;;;;;;72.40;56.60;;;;;;;;5187723;28;8812;-64
2021/12/17 16:28:53;;;;;;;;;68.00;55.20;;;;;;;;5170977;28;8845;-65
2021/12/17 16:31:26;;;;;;;;;41.00;31.75;;;;;;;;5204518;28;8786;-63
2021/12/17 16:33:58;;;;;;;;;42.00;39.60;;;;;;;;5187114;28;8793;-64
2021/12/17 16:36:48;;;;;;;;;43.20;38.20;;;;;;;;5189834;28;8821;-65
2021/12/17 16:39:20;;;;;;;;;58.80;47.20;;;;;;;;5205116;28;8879;-65
2021/12/17 16:41:52;;;;;;;;;54.20;48.20;;;;;;;;5170074;28;8818;-65
2021/12/17 16:44:41;;;;;;;;;53.20;45.00;;;;;;;;5187158;28;8819;-64
2021/12/17 16:47:12;;;;;;;;;68.40;54.00;;;;;;;;5170768;28;8917;-65
2021/12/17 16:49:42;;;;;;;;;53.50;45.75;;;;;;;;5204014;28;8932;-65
2021/12/17 16:52:13;;;;;;;;;37.50;31.00;;;;;;;;5204313;28;8912;-65
2021/12/17 16:55:04;;;;;;;;;38.00;37.40;;;;;;;;5190802;28;8782;-65
2021/12/17 16:57:35;;;;;;;;;39.00;34.80;;;;;;;;5171378;28;8794;-64
2021/12/17 17:00:06;;;;;;;;;59.80;51.00;;;;;;;;5170328;28;8797;-65
2021/12/17 17:02:37;;;;;;;;;48.80;44.80;;;;;;;;5204437;28;8794;-65
2021/12/17 17:05:08;;;;;;;;;74.00;57.40;;;;;;;;5170548;28;8824;-65
2021/12/17 17:07:39;;;;;;;;;65.00;53.20;;;;;;;;5204901;28;8936;-64
2021/12/17 17:10:11;;;;;;;;;71.75;59.50;;;;;;;;5186378;28;8891;-65
2021/12/17 17:12:46;;;;;;;;;68.40;49.60;;;;;;;;5154754;28;8789;-64
2021/12/17 17:15:17;;;;;;;;;70.00;57.80;;;;;;;;5170721;28;8800;-64
2021/12/17 17:17:49;;;;;;;;;69.00;56.75;;;;;;;;5204271;28;8794;-64
2021/12/17 17:20:20;;;;;;;;;70.00;55.00;;;;;;;;5172883;28;8878;-64
2021/12/17 17:23:09;;;;;;;;;73.20;53.00;;;;;;;;5208314;28;8770;-65
2021/12/17 17:25:40;;;;;;;;;52.50;46.00;;;;;;;;5207587;28;8906;-64
2021/12/17 17:28:12;;;;;;;;;48.20;44.40;;;;;;;;5173142;28;8801;-64
2021/12/17 17:30:43;;;;;;;;;52.25;47.50;;;;;;;;5208038;28;8808;-64
2021/12/17 17:33:14;;;;;;;;;54.80;48.20;;;;;;;;5173973;28;11137;-64
2021/12/17 17:35:45;;;;;;;;;44.25;41.25;;;;;;;;5208291;28;8825;-64
2021/12/17 17:38:16;;;;;;;;;48.20;44.20;;;;;;;;5173595;28;8821;-64
2021/12/17 17:40:47;;;;;;;;;44.75;39.50;;;;;;;;5208773;28;8788;-64
2021/12/17 17:43:18;;;;;;;;;41.40;39.60;;;;;;;;5173549;28;8844;-64
2021/12/17 17:45:48;;;;;;;;;31.25;30.75;;;;;;;;5207351;28;8801;-64
2021/12/17 17:48:38;;;;;;;;;30.80;30.80;;;;;;;;5190721;28;8843;-64
2021/12/17 17:51:08;;;;;;;;;33.50;26.50;;;;;;;;5207711;28;8801;-64
2021/12/17 17:53:40;;;;;;;;;30.80;29.60;;;;;;;;5189804;28;8793;-65
2021/12/17 17:56:12;;;;;;;;;35.60;32.80;;;;;;;;5173491;28;8813;-64
2021/12/17 17:58:43;;;;;;;;;28.80;27.80;;;;;;;;5173152;28;8875;-64
2021/12/17 18:01:14;;;;;;;;;34.40;32.20;;;;;;;;5206822;28;8839;-64
2021/12/17 18:03:45;;;;;;;;;31.80;30.60;;;;;;;;5173481;28;8805;-64
2021/12/17 18:06:16;;;;;;;;;79.00;62.75;;;;;;;;5207737;28;9562;-64
2021/12/17 18:08:47;;;;;;;;;73.00;57.60;;;;;;;;5172823;28;11569;-64
2021/12/17 18:11:18;;;;;;;;;42.80;37.80;;;;;;;;5208274;28;8809;-66
2021/12/17 18:13:49;;;;;;;;;34.60;32.40;;;;;;;;5189918;28;8796;-64
2021/12/17 18:16:24;;;;;;;;;30.75;29.50;;;;;;;;5206859;28;8845;-64
2021/12/17 18:18:57;;;;;;;;;36.40;34.20;;;;;;;;5188747;28;8971;-64
2021/12/17 18:21:27;;;;;;;;;89.20;71.00;;;;;;;;5207325;28;8814;-64
2021/12/17 18:23:58;;;;;;;;;55.25;44.75;;;;;;;;5189171;28;8799;-64
2021/12/17 18:26:29;;;;;;;;;43.75;41.50;;;;;;;;5207108;28;8828;-64
2021/12/17 18:29:19;;;;;;;;;27.80;27.40;;;;;;;;5206541;28;8777;-65
2021/12/17 18:31:50;;;;;;;;;36.60;36.20;;;;;;;;5188840;28;8786;-64
2021/12/17 18:34:21;;;;;;;;;36.40;32.40;;;;;;;;5207862;28;8809;-64
2021/12/17 18:36:52;;;;;;;;;33.40;31.00;;;;;;;;5173009;28;9537;-64
2021/12/17 18:39:23;;;;;;;;;33.20;30.80;;;;;;;;5189217;28;9039;-64
2021/12/17 18:44:54;;;;;;;;;35.20;31.60;;;;;;;;5169967;28;8809;-64
2021/12/17 18:47:25;;;;;;;;;42.20;40.40;;;;;;;;5188825;28;8944;-64
2021/12/17 18:49:56;;;;;;;;;29.50;28.75;;;;;;;;5206029;28;8920;-64
2021/12/17 18:56:56;;;;;;;;;80.60;66.00;;;;;;;;5206164;28;8789;-64
2021/12/17 18:59:27;;;;;;;;;38.25;35.75;;;;;;;;5206941;28;8817;-63
2021/12/17 19:01:58;;;;;;;;;42.75;40.00;;;;;;;;5206538;28;8921;-63
2021/12/17 19:04:29;;;;;;;;;19.25;14.25;;;;;;;;5205994;28;8916;-65
2021/12/17 19:07:00;;;;;;;;;37.25;34.25;;;;;;;;5206239;28;11562;-64
2021/12/17 19:09:31;;;;;;;;;51.75;46.25;;;;;;;;5206706;28;8813;-64
2021/12/17 19:12:02;;;;;;;;;44.80;39.80;;;;;;;;5188313;28;9632;-64
2021/12/17 19:14:35;;;;;;;;;41.00;38.40;;;;;;;;5172066;28;9508;-65
2021/12/17 19:17:06;;;;;;;;;44.20;40.40;;;;;;;;5171835;28;8821;-65
2021/12/17 19:19:48;;;;;;;;;52.00;43.75;;;;;;;;5205634;28;8798;-65
2021/12/17 19:22:32;;;;;;;;;37.80;35.60;;;;;;;;5172512;28;8785;-65
2021/12/17 19:25:22;;;;;;;;;34.20;32.20;;;;;;;;5190734;28;8812;-64
2021/12/17 19:27:52;;;;;;;;;36.00;29.50;;;;;;;;5206152;28;8790;-65
2021/12/17 19:30:25;;;;;;;;;38.40;33.00;;;;;;;;5188063;28;8837;-64
2021/12/17 19:32:56;;;;;;;;;32.60;31.80;;;;;;;;5172338;28;8785;-64
2021/12/17 19:35:27;;;;;;;;;31.20;30.80;;;;;;;;5187930;28;8979;-65
2021/12/17 19:38:16;;;;;;;;;28.20;26.40;;;;;;;;5205953;28;8875;-65
2021/12/17 19:40:47;;;;;;;;;29.75;28.75;;;;;;;;5205760;28;8782;-64
2021/12/17 19:43:18;;;;;;;;;30.50;30.50;;;;;;;;5205538;28;8805;-64